sensor_id;sensor_type;location;lat;lon;timestamp;P1;durP1;ratioP1;P2;durP2;ratioP2
62863;SDS011;48954;59.950;11.014;2022-11-20T00:00:27;1.00;;;0.40;;
62863;SDS011;48954;59.950;11.014;2022-11-20T00:04:04;0.60;;;0.30;;
62863;SDS011;48954;59.950;11.014;2022-11-20T00:07:44;1.20;;;0.30;;
62863;SDS011;48954;59.950;11.014;2022-11-20T00:27:18;4.80;;;1.00;;
62863;SDS011;48954;59.950;11.014;2022-11-20T00:30:40;1.40;;;0.60;;
62863;SDS011;48954;59.950;11.014;2022-11-20T00:33:47;1.10;;;0.50;;
62863;SDS011;48954;59.950;11.014;2022-11-20T00:37:14;0.30;;;0.20;;
62863;SDS011;48954;59.950;11.014;2022-11-20T00:45:23;0.40;;;0.30;;
62863;SDS011;48954;59.950;11.014;2022-11-20T01:00:37;0.40;;;0.10;;
62863;SDS011;48954;59.950;11.014;2022-11-20T01:04:08;1.30;;;0.30;;
62863;SDS011;48954;59.950;11.014;2022-11-20T01:07:30;0.80;;;0.40;;
62863;SDS011;48954;59.950;11.014;2022-11-20T01:10:38;0.80;;;0.40;;
62863;SDS011;48954;59.950;11.014;2022-11-20T01:13:58;2.60;;;0.60;;
62863;SDS011;48954;59.950;11.014;2022-11-20T01:16:46;2.00;;;0.40;;
62863;SDS011;48954;59.950;11.014;2022-11-20T01:19:32;1.00;;;0.50;;
62863;SDS011;48954;59.950;11.014;2022-11-20T01:25:50;1.70;;;0.80;;
62863;SDS011;48954;59.950;11.014;2022-11-20T02:06:29;0.70;;;0.30;;
62863;SDS011;48954;59.950;11.014;2022-11-20T02:12:04;0.70;;;0.20;;
62863;SDS011;48954;59.950;11.014;2022-11-20T02:15:10;0.50;;;0.40;;
62863;SDS011;48954;59.950;11.014;2022-11-20T02:18:16;0.80;;;0.30;;
62863;SDS011;48954;59.950;11.014;2022-11-20T02:21:20;0.60;;;0.30;;
62863;SDS011;48954;59.950;11.014;2022-11-20T02:24:34;2.30;;;0.50;;
62863;SDS011;48954;59.950;11.014;2022-11-20T02:28:00;0.40;;;0.30;;
62863;SDS011;48954;59.950;11.014;2022-11-20T02:30:43;1.00;;;0.50;;
62863;SDS011;48954;59.950;11.014;2022-11-20T02:33:26;0.50;;;0.20;;
62863;SDS011;48954;59.950;11.014;2022-11-20T02:36:19;1.20;;;0.40;;
62863;SDS011;48954;59.950;11.014;2022-11-20T02:39:07;1.10;;;0.50;;
62863;SDS011;48954;59.950;11.014;2022-11-20T02:41:53;0.40;;;0.30;;
62863;SDS011;48954;59.950;11.014;2022-11-20T02:44:53;0.60;;;0.30;;
62863;SDS011;48954;59.950;11.014;2022-11-20T02:50:21;1.10;;;0.40;;
62863;SDS011;48954;59.950;11.014;2022-11-20T02:56:14;1.30;;;0.60;;
62863;SDS011;48954;59.950;11.014;2022-11-20T02:58:56;1.50;;;0.60;;
62863;SDS011;48954;59.950;11.014;2022-11-20T03:01:43;1.30;;;0.50;;
62863;SDS011;48954;59.950;11.014;2022-11-20T03:04:40;0.90;;;0.40;;
62863;SDS011;48954;59.950;11.014;2022-11-20T03:10:48;0.70;;;0.40;;
62863;SDS011;48954;59.950;11.014;2022-11-20T03:13:29;1.20;;;0.40;;
62863;SDS011;48954;59.950;11.014;2022-11-20T03:16:30;3.20;;;0.60;;
62863;SDS011;48954;59.950;11.014;2022-11-20T03:19:16;0.80;;;0.50;;
62863;SDS011;48954;59.950;11.014;2022-11-20T03:21:57;1.30;;;0.60;;
62863;SDS011;48954;59.950;11.014;2022-11-20T03:24:39;0.80;;;0.30;;
62863;SDS011;48954;59.950;11.014;2022-11-20T03:27:33;0.60;;;0.30;;
62863;SDS011;48954;59.950;11.014;2022-11-20T03:30:14;1.70;;;0.60;;
62863;SDS011;48954;59.950;11.014;2022-11-20T03:33:15;0.90;;;0.40;;
62863;SDS011;48954;59.950;11.014;2022-11-20T03:36:21;2.10;;;0.40;;
62863;SDS011;48954;59.950;11.014;2022-11-20T03:39:04;0.50;;;0.20;;
62863;SDS011;48954;59.950;11.014;2022-11-20T03:42:09;0.80;;;0.40;;
62863;SDS011;48954;59.950;11.014;2022-11-20T03:45:05;1.10;;;0.30;;
62863;SDS011;48954;59.950;11.014;2022-11-20T03:51:21;1.10;;;0.50;;
62863;SDS011;48954;59.950;11.014;2022-11-20T03:54:22;1.20;;;0.50;;
62863;SDS011;48954;59.950;11.014;2022-11-20T03:57:49;1.10;;;0.40;;
62863;SDS011;48954;59.950;11.014;2022-11-20T04:09:30;1.20;;;0.50;;
62863;SDS011;48954;59.950;11.014;2022-11-20T04:12:51;0.50;;;0.20;;
62863;SDS011;48954;59.950;11.014;2022-11-20T04:16:11;0.70;;;0.30;;
62863;SDS011;48954;59.950;11.014;2022-11-20T04:35:40;0.80;;;0.40;;
62863;SDS011;48954;59.950;11.014;2022-11-20T04:47:11;0.50;;;0.20;;
62863;SDS011;48954;59.950;11.014;2022-11-20T04:50:02;1.30;;;0.40;;
62863;SDS011;48954;59.950;11.014;2022-11-20T04:52:46;0.70;;;0.30;;
62863;SDS011;48954;59.950;11.014;2022-11-20T04:56:08;0.90;;;0.40;;
62863;SDS011;48954;59.950;11.014;2022-11-20T04:59:21;2.20;;;0.50;;
62863;SDS011;48954;59.950;11.014;2022-11-20T05:02:42;1.60;;;0.50;;
62863;SDS011;48954;59.950;11.014;2022-11-20T05:06:04;1.00;;;0.40;;
62863;SDS011;48954;59.950;11.014;2022-11-20T05:08:50;1.00;;;0.40;;
62863;SDS011;48954;59.950;11.014;2022-11-20T05:11:31;1.60;;;0.50;;
62863;SDS011;48954;59.950;11.014;2022-11-20T05:14:20;0.70;;;0.30;;
62863;SDS011;48954;59.950;11.014;2022-11-20T05:17:46;0.70;;;0.30;;
62863;SDS011;48954;59.950;11.014;2022-11-20T05:20:43;0.40;;;0.20;;
62863;SDS011;48954;59.950;11.014;2022-11-20T05:24:07;0.80;;;0.40;;
62863;SDS011;48954;59.950;11.014;2022-11-20T05:58:22;1.20;;;0.50;;
62863;SDS011;48954;59.950;11.014;2022-11-20T06:01:07;0.80;;;0.40;;
62863;SDS011;48954;59.950;11.014;2022-11-20T06:04:31;1.10;;;0.60;;
62863;SDS011;48954;59.950;11.014;2022-11-20T06:32:26;1.70;;;0.60;;
62863;SDS011;48954;59.950;11.014;2022-11-20T08:05:06;1.40;;;0.70;;
62863;SDS011;48954;59.950;11.014;2022-11-20T08:07:37;1.10;;;0.50;;
62863;SDS011;48954;59.950;11.014;2022-11-20T08:10:20;1.20;;;0.60;;
62863;SDS011;48954;59.950;11.014;2022-11-20T08:12:52;1.50;;;0.80;;
62863;SDS011;48954;59.950;11.014;2022-11-20T08:15:35;1.90;;;0.70;;
62863;SDS011;48954;59.950;11.014;2022-11-20T08:18:03;2.20;;;0.60;;
62863;SDS011;48954;59.950;11.014;2022-11-20T08:20:35;1.10;;;0.50;;
62863;SDS011;48954;59.950;11.014;2022-11-20T08:23:15;0.50;;;0.30;;
62863;SDS011;48954;59.950;11.014;2022-11-20T08:25:49;1.20;;;0.60;;
62863;SDS011;48954;59.950;11.014;2022-11-20T08:28:17;1.90;;;0.90;;
62863;SDS011;48954;59.950;11.014;2022-11-20T08:30:48;1.40;;;0.60;;
62863;SDS011;48954;59.950;11.014;2022-11-20T08:33:16;1.60;;;0.80;;
62863;SDS011;48954;59.950;11.014;2022-11-20T08:35:43;1.10;;;0.50;;
62863;SDS011;48954;59.950;11.014;2022-11-20T08:38:09;1.90;;;0.80;;
62863;SDS011;48954;59.950;11.014;2022-11-20T08:40:39;1.80;;;1.00;;
62863;SDS011;48954;59.950;11.014;2022-11-20T08:43:06;3.80;;;1.30;;
62863;SDS011;48954;59.950;11.014;2022-11-20T08:45:34;1.70;;;0.80;;
62863;SDS011;48954;59.950;11.014;2022-11-20T08:48:01;3.00;;;1.30;;
62863;SDS011;48954;59.950;11.014;2022-11-20T08:50:29;1.30;;;0.60;;
62863;SDS011;48954;59.950;11.014;2022-11-20T08:53:06;2.60;;;0.90;;
62863;SDS011;48954;59.950;11.014;2022-11-20T08:55:34;1.60;;;0.60;;
62863;SDS011;48954;59.950;11.014;2022-11-20T08:58:05;3.50;;;1.60;;
62863;SDS011;48954;59.950;11.014;2022-11-20T09:00:36;4.30;;;1.60;;
62863;SDS011;48954;59.950;11.014;2022-11-20T09:03:07;3.90;;;1.60;;
62863;SDS011;48954;59.950;11.014;2022-11-20T09:05:34;4.60;;;1.50;;
62863;SDS011;48954;59.950;11.014;2022-11-20T09:08:01;4.40;;;1.10;;
62863;SDS011;48954;59.950;11.014;2022-11-20T09:10:30;3.20;;;1.10;;
62863;SDS011;48954;59.950;11.014;2022-11-20T09:12:57;2.90;;;1.00;;
62863;SDS011;48954;59.950;11.014;2022-11-20T09:15:24;1.70;;;0.70;;
62863;SDS011;48954;59.950;11.014;2022-11-20T09:18:06;2.90;;;1.00;;
62863;SDS011;48954;59.950;11.014;2022-11-20T09:20:34;4.10;;;1.30;;
62863;SDS011;48954;59.950;11.014;2022-11-20T09:23:11;1.30;;;0.60;;
62863;SDS011;48954;59.950;11.014;2022-11-20T09:25:38;2.00;;;0.80;;
62863;SDS011;48954;59.950;11.014;2022-11-20T09:28:06;2.60;;;0.70;;
62863;SDS011;48954;59.950;11.014;2022-11-20T09:30:34;1.00;;;0.70;;
62863;SDS011;48954;59.950;11.014;2022-11-20T09:33:06;2.00;;;1.00;;
62863;SDS011;48954;59.950;11.014;2022-11-20T09:35:34;2.30;;;0.80;;
62863;SDS011;48954;59.950;11.014;2022-11-20T09:38:05;1.90;;;0.90;;
62863;SDS011;48954;59.950;11.014;2022-11-20T09:40:32;2.10;;;0.70;;
62863;SDS011;48954;59.950;11.014;2022-11-20T09:48:42;1.10;;;0.60;;
62863;SDS011;48954;59.950;11.014;2022-11-20T09:51:35;1.70;;;0.70;;
62863;SDS011;48954;59.950;11.014;2022-11-20T09:56:51;2.10;;;0.90;;
62863;SDS011;48954;59.950;11.014;2022-11-20T10:02:16;2.00;;;0.70;;
62863;SDS011;48954;59.950;11.014;2022-11-20T10:04:59;4.30;;;1.60;;
62863;SDS011;48954;59.950;11.014;2022-11-20T10:10:20;2.80;;;1.00;;
62863;SDS011;48954;59.950;11.014;2022-11-20T10:13:00;1.90;;;1.00;;
62863;SDS011;48954;59.950;11.014;2022-11-20T10:18:26;2.20;;;0.80;;
62863;SDS011;48954;59.950;11.014;2022-11-20T10:27:07;1.80;;;0.70;;
62863;SDS011;48954;59.950;11.014;2022-11-20T10:30:16;1.70;;;0.60;;
62863;SDS011;48954;59.950;11.014;2022-11-20T10:32:46;2.50;;;0.80;;
62863;SDS011;48954;59.950;11.014;2022-11-20T10:35:28;1.20;;;0.50;;
62863;SDS011;48954;59.950;11.014;2022-11-20T10:38:34;1.80;;;0.70;;
62863;SDS011;48954;59.950;11.014;2022-11-20T10:44:26;3.00;;;1.10;;
62863;SDS011;48954;59.950;11.014;2022-11-20T10:46:55;3.80;;;2.10;;
62863;SDS011;48954;59.950;11.014;2022-11-20T10:49:25;5.70;;;1.80;;
62863;SDS011;48954;59.950;11.014;2022-11-20T10:55:39;5.70;;;1.70;;
62863;SDS011;48954;59.950;11.014;2022-11-20T11:00:47;3.40;;;1.30;;
62863;SDS011;48954;59.950;11.014;2022-11-20T11:06:20;6.00;;;2.40;;
62863;SDS011;48954;59.950;11.014;2022-11-20T11:09:09;4.40;;;1.80;;
62863;SDS011;48954;59.950;11.014;2022-11-20T11:12:00;4.90;;;2.10;;
62863;SDS011;48954;59.950;11.014;2022-11-20T11:14:44;7.90;;;2.20;;
62863;SDS011;48954;59.950;11.014;2022-11-20T11:17:20;3.70;;;1.70;;
62863;SDS011;48954;59.950;11.014;2022-11-20T11:19:57;3.60;;;1.20;;
62863;SDS011;48954;59.950;11.014;2022-11-20T11:22:46;3.70;;;1.50;;
62863;SDS011;48954;59.950;11.014;2022-11-20T11:25:23;2.60;;;1.30;;
62863;SDS011;48954;59.950;11.014;2022-11-20T11:30:50;5.80;;;1.90;;
62863;SDS011;48954;59.950;11.014;2022-11-20T11:33:21;4.10;;;1.30;;
62863;SDS011;48954;59.950;11.014;2022-11-20T11:36:05;8.50;;;3.50;;
62863;SDS011;48954;59.950;11.014;2022-11-20T11:38:50;6.60;;;2.20;;
62863;SDS011;48954;59.950;11.014;2022-11-20T11:41:31;13.90;;;4.40;;
62863;SDS011;48954;59.950;11.014;2022-11-20T11:44:04;10.40;;;3.60;;
62863;SDS011;48954;59.950;11.014;2022-11-20T11:46:44;8.10;;;3.00;;
62863;SDS011;48954;59.950;11.014;2022-11-20T11:49:24;15.50;;;4.90;;
62863;SDS011;48954;59.950;11.014;2022-11-20T11:52:12;5.70;;;2.50;;
62863;SDS011;48954;59.950;11.014;2022-11-20T11:54:59;4.40;;;1.80;;
62863;SDS011;48954;59.950;11.014;2022-11-20T11:58:06;4.20;;;1.70;;
62863;SDS011;48954;59.950;11.014;2022-11-20T12:00:45;9.40;;;3.40;;
62863;SDS011;48954;59.950;11.014;2022-11-20T12:04:34;4.60;;;1.80;;
62863;SDS011;48954;59.950;11.014;2022-11-20T12:07:24;4.30;;;2.00;;
62863;SDS011;48954;59.950;11.014;2022-11-20T12:16:00;3.70;;;1.80;;
62863;SDS011;48954;59.950;11.014;2022-11-20T12:18:41;2.60;;;1.30;;
62863;SDS011;48954;59.950;11.014;2022-11-20T12:49:54;2.30;;;0.90;;
62863;SDS011;48954;59.950;11.014;2022-11-20T12:52:56;2.60;;;1.10;;
62863;SDS011;48954;59.950;11.014;2022-11-20T12:58:51;3.20;;;1.00;;
62863;SDS011;48954;59.950;11.014;2022-11-20T13:08:02;3.60;;;1.10;;
62863;SDS011;48954;59.950;11.014;2022-11-20T13:10:35;2.40;;;0.80;;
62863;SDS011;48954;59.950;11.014;2022-11-20T13:16:35;3.60;;;1.20;;
62863;SDS011;48954;59.950;11.014;2022-11-20T13:19:13;4.00;;;1.30;;
62863;SDS011;48954;59.950;11.014;2022-11-20T13:21:48;5.40;;;2.00;;
62863;SDS011;48954;59.950;11.014;2022-11-20T13:24:30;5.30;;;2.10;;
62863;SDS011;48954;59.950;11.014;2022-11-20T13:29:31;4.00;;;1.80;;
62863;SDS011;48954;59.950;11.014;2022-11-20T13:40:59;3.00;;;1.10;;
62863;SDS011;48954;59.950;11.014;2022-11-20T13:43:59;3.50;;;1.40;;
62863;SDS011;48954;59.950;11.014;2022-11-20T13:46:38;2.70;;;1.10;;
62863;SDS011;48954;59.950;11.014;2022-11-20T14:01:39;2.10;;;0.70;;
62863;SDS011;48954;59.950;11.014;2022-11-20T14:04:42;3.80;;;1.10;;
62863;SDS011;48954;59.950;11.014;2022-11-20T14:07:55;1.70;;;0.80;;
62863;SDS011;48954;59.950;11.014;2022-11-20T14:10:38;3.60;;;1.10;;
62863;SDS011;48954;59.950;11.014;2022-11-20T14:14:02;2.70;;;0.90;;
62863;SDS011;48954;59.950;11.014;2022-11-20T14:17:15;2.00;;;0.90;;
62863;SDS011;48954;59.950;11.014;2022-11-20T14:25:48;6.00;;;1.20;;
62863;SDS011;48954;59.950;11.014;2022-11-20T14:31:19;2.50;;;1.20;;
62863;SDS011;48954;59.950;11.014;2022-11-20T14:34:41;2.40;;;1.00;;
62863;SDS011;48954;59.950;11.014;2022-11-20T14:37:50;2.40;;;1.20;;
62863;SDS011;48954;59.950;11.014;2022-11-20T14:40:43;2.90;;;1.20;;
62863;SDS011;48954;59.950;11.014;2022-11-20T14:46:00;3.20;;;1.20;;
62863;SDS011;48954;59.950;11.014;2022-11-20T14:48:52;6.00;;;1.90;;
62863;SDS011;48954;59.950;11.014;2022-11-20T14:54:50;2.60;;;0.80;;
62863;SDS011;48954;59.950;11.014;2022-11-20T14:57:31;1.60;;;0.70;;
62863;SDS011;48954;59.950;11.014;2022-11-20T15:02:54;3.00;;;1.10;;
62863;SDS011;48954;59.950;11.014;2022-11-20T15:05:22;3.30;;;1.30;;
62863;SDS011;48954;59.950;11.014;2022-11-20T15:07:52;2.80;;;1.30;;
62863;SDS011;48954;59.950;11.014;2022-11-20T15:10:45;3.70;;;1.40;;
62863;SDS011;48954;59.950;11.014;2022-11-20T15:13:24;3.50;;;1.80;;
62863;SDS011;48954;59.950;11.014;2022-11-20T15:16:04;3.20;;;1.00;;
62863;SDS011;48954;59.950;11.014;2022-11-20T15:18:45;3.80;;;1.30;;
62863;SDS011;48954;59.950;11.014;2022-11-20T15:21:15;1.70;;;0.70;;
62863;SDS011;48954;59.950;11.014;2022-11-20T15:23:48;2.70;;;1.10;;
62863;SDS011;48954;59.950;11.014;2022-11-20T15:26:19;4.00;;;1.50;;
62863;SDS011;48954;59.950;11.014;2022-11-20T15:28:54;4.00;;;1.40;;
62863;SDS011;48954;59.950;11.014;2022-11-20T15:31:33;6.30;;;1.90;;
62863;SDS011;48954;59.950;11.014;2022-11-20T15:34:00;3.60;;;1.50;;
62863;SDS011;48954;59.950;11.014;2022-11-20T15:36:27;2.80;;;0.90;;
62863;SDS011;48954;59.950;11.014;2022-11-20T15:38:56;2.00;;;0.80;;
62863;SDS011;48954;59.950;11.014;2022-11-20T15:41:36;1.70;;;0.90;;
62863;SDS011;48954;59.950;11.014;2022-11-20T15:44:06;3.30;;;1.30;;
62863;SDS011;48954;59.950;11.014;2022-11-20T15:46:54;2.50;;;1.20;;
62863;SDS011;48954;59.950;11.014;2022-11-20T15:49:58;2.10;;;0.90;;
62863;SDS011;48954;59.950;11.014;2022-11-20T15:55:26;1.20;;;0.50;;
62863;SDS011;48954;59.950;11.014;2022-11-20T15:58:04;3.20;;;1.40;;
62863;SDS011;48954;59.950;11.014;2022-11-20T16:01:17;3.60;;;1.10;;
62863;SDS011;48954;59.950;11.014;2022-11-20T16:03:46;2.40;;;1.10;;
62863;SDS011;48954;59.950;11.014;2022-11-20T16:06:13;4.90;;;1.50;;
62863;SDS011;48954;59.950;11.014;2022-11-20T16:08:52;2.90;;;1.20;;
62863;SDS011;48954;59.950;11.014;2022-11-20T16:11:18;4.40;;;1.10;;
62863;SDS011;48954;59.950;11.014;2022-11-20T16:13:46;2.70;;;1.20;;
62863;SDS011;48954;59.950;11.014;2022-11-20T16:19:03;2.00;;;0.80;;
62863;SDS011;48954;59.950;11.014;2022-11-20T16:21:30;4.10;;;1.00;;
62863;SDS011;48954;59.950;11.014;2022-11-20T16:24:01;2.00;;;1.00;;
62863;SDS011;48954;59.950;11.014;2022-11-20T16:26:29;2.50;;;1.40;;
62863;SDS011;48954;59.950;11.014;2022-11-20T16:29:00;2.80;;;1.20;;
62863;SDS011;48954;59.950;11.014;2022-11-20T16:31:35;5.20;;;1.70;;
62863;SDS011;48954;59.950;11.014;2022-11-20T16:34:03;2.10;;;0.90;;
62863;SDS011;48954;59.950;11.014;2022-11-20T16:36:33;2.30;;;0.80;;
62863;SDS011;48954;59.950;11.014;2022-11-20T16:39:00;2.60;;;0.80;;
62863;SDS011;48954;59.950;11.014;2022-11-20T16:41:38;3.40;;;1.20;;
62863;SDS011;48954;59.950;11.014;2022-11-20T16:44:08;2.70;;;0.90;;
62863;SDS011;48954;59.950;11.014;2022-11-20T16:46:36;3.30;;;1.10;;
62863;SDS011;48954;59.950;11.014;2022-11-20T16:49:13;2.70;;;1.10;;
62863;SDS011;48954;59.950;11.014;2022-11-20T16:51:43;2.40;;;0.90;;
62863;SDS011;48954;59.950;11.014;2022-11-20T16:54:09;2.60;;;0.90;;
62863;SDS011;48954;59.950;11.014;2022-11-20T16:56:37;3.00;;;1.00;;
62863;SDS011;48954;59.950;11.014;2022-11-20T16:59:04;2.60;;;1.00;;
62863;SDS011;48954;59.950;11.014;2022-11-20T17:01:31;2.20;;;0.80;;
62863;SDS011;48954;59.950;11.014;2022-11-20T17:04:11;5.30;;;1.00;;
62863;SDS011;48954;59.950;11.014;2022-11-20T17:06:40;3.30;;;1.10;;
62863;SDS011;48954;59.950;11.014;2022-11-20T17:09:08;2.20;;;0.70;;
62863;SDS011;48954;59.950;11.014;2022-11-20T17:11:40;5.40;;;1.30;;
62863;SDS011;48954;59.950;11.014;2022-11-20T17:14:08;1.30;;;0.60;;
62863;SDS011;48954;59.950;11.014;2022-11-20T17:16:37;3.00;;;1.20;;
62863;SDS011;48954;59.950;11.014;2022-11-20T17:19:03;5.60;;;1.80;;
62863;SDS011;48954;59.950;11.014;2022-11-20T17:21:32;2.30;;;1.30;;
62863;SDS011;48954;59.950;11.014;2022-11-20T17:24:01;2.90;;;1.10;;
62863;SDS011;48954;59.950;11.014;2022-11-20T17:26:30;3.20;;;1.10;;
62863;SDS011;48954;59.950;11.014;2022-11-20T17:28:58;3.30;;;1.20;;
62863;SDS011;48954;59.950;11.014;2022-11-20T17:31:27;3.00;;;1.30;;
62863;SDS011;48954;59.950;11.014;2022-11-20T17:33:56;3.30;;;0.90;;
62863;SDS011;48954;59.950;11.014;2022-11-20T17:36:23;3.30;;;1.10;;
62863;SDS011;48954;59.950;11.014;2022-11-20T17:38:49;3.30;;;1.60;;
62863;SDS011;48954;59.950;11.014;2022-11-20T17:41:23;2.80;;;0.90;;
62863;SDS011;48954;59.950;11.014;2022-11-20T17:43:52;2.40;;;0.70;;
62863;SDS011;48954;59.950;11.014;2022-11-20T17:46:24;2.60;;;1.00;;
62863;SDS011;48954;59.950;11.014;2022-11-20T17:48:53;3.50;;;1.30;;
62863;SDS011;48954;59.950;11.014;2022-11-20T17:51:21;4.80;;;1.50;;
62863;SDS011;48954;59.950;11.014;2022-11-20T17:53:51;3.40;;;1.20;;
62863;SDS011;48954;59.950;11.014;2022-11-20T17:56:18;2.90;;;0.90;;
62863;SDS011;48954;59.950;11.014;2022-11-20T17:58:45;3.00;;;1.30;;
62863;SDS011;48954;59.950;11.014;2022-11-20T18:01:12;3.50;;;1.40;;
62863;SDS011;48954;59.950;11.014;2022-11-20T18:03:41;2.30;;;0.80;;
62863;SDS011;48954;59.950;11.014;2022-11-20T18:06:11;1.70;;;0.80;;
62863;SDS011;48954;59.950;11.014;2022-11-20T18:08:40;2.00;;;0.70;;
62863;SDS011;48954;59.950;11.014;2022-11-20T18:11:21;3.30;;;1.40;;
62863;SDS011;48954;59.950;11.014;2022-11-20T18:13:50;5.50;;;1.40;;
62863;SDS011;48954;59.950;11.014;2022-11-20T18:16:19;4.00;;;1.00;;
62863;SDS011;48954;59.950;11.014;2022-11-20T18:18:46;4.00;;;1.30;;
62863;SDS011;48954;59.950;11.014;2022-11-20T18:21:13;3.90;;;1.20;;
62863;SDS011;48954;59.950;11.014;2022-11-20T18:23:39;3.30;;;1.10;;
62863;SDS011;48954;59.950;11.014;2022-11-20T18:26:05;4.30;;;1.30;;
62863;SDS011;48954;59.950;11.014;2022-11-20T18:28:35;2.20;;;1.00;;
62863;SDS011;48954;59.950;11.014;2022-11-20T18:31:06;3.30;;;1.20;;
62863;SDS011;48954;59.950;11.014;2022-11-20T18:33:33;2.20;;;0.90;;
62863;SDS011;48954;59.950;11.014;2022-11-20T18:38:48;2.90;;;1.10;;
62863;SDS011;48954;59.950;11.014;2022-11-20T18:41:17;3.40;;;1.20;;
62863;SDS011;48954;59.950;11.014;2022-11-20T18:43:45;3.40;;;1.30;;
62863;SDS011;48954;59.950;11.014;2022-11-20T18:46:12;1.90;;;0.50;;
62863;SDS011;48954;59.950;11.014;2022-11-20T18:48:38;3.30;;;1.20;;
62863;SDS011;48954;59.950;11.014;2022-11-20T18:51:05;2.20;;;0.60;;
62863;SDS011;48954;59.950;11.014;2022-11-20T18:53:36;2.10;;;0.80;;
62863;SDS011;48954;59.950;11.014;2022-11-20T18:56:03;2.50;;;0.70;;
62863;SDS011;48954;59.950;11.014;2022-11-20T18:58:30;2.20;;;1.00;;
62863;SDS011;48954;59.950;11.014;2022-11-20T19:01:06;2.80;;;0.90;;
62863;SDS011;48954;59.950;11.014;2022-11-20T19:03:33;2.50;;;0.90;;
62863;SDS011;48954;59.950;11.014;2022-11-20T19:06:00;2.60;;;1.00;;
62863;SDS011;48954;59.950;11.014;2022-11-20T19:08:26;4.30;;;0.80;;
62863;SDS011;48954;59.950;11.014;2022-11-20T19:11:03;3.40;;;0.90;;
62863;SDS011;48954;59.950;11.014;2022-11-20T19:13:31;1.70;;;0.60;;
62863;SDS011;48954;59.950;11.014;2022-11-20T19:16:12;2.60;;;0.80;;
62863;SDS011;48954;59.950;11.014;2022-11-20T19:18:43;2.10;;;0.70;;
62863;SDS011;48954;59.950;11.014;2022-11-20T19:21:13;1.40;;;0.60;;
62863;SDS011;48954;59.950;11.014;2022-11-20T19:23:41;1.10;;;0.40;;
62863;SDS011;48954;59.950;11.014;2022-11-20T19:26:08;1.80;;;0.60;;
62863;SDS011;48954;59.950;11.014;2022-11-20T19:28:36;2.30;;;1.10;;
62863;SDS011;48954;59.950;11.014;2022-11-20T19:31:20;4.20;;;1.40;;
62863;SDS011;48954;59.950;11.014;2022-11-20T19:33:54;4.10;;;1.10;;
62863;SDS011;48954;59.950;11.014;2022-11-20T19:36:23;3.60;;;1.30;;
62863;SDS011;48954;59.950;11.014;2022-11-20T19:38:53;4.20;;;1.20;;
62863;SDS011;48954;59.950;11.014;2022-11-20T19:41:22;2.50;;;0.70;;
62863;SDS011;48954;59.950;11.014;2022-11-20T19:43:51;2.60;;;0.80;;
62863;SDS011;48954;59.950;11.014;2022-11-20T19:46:22;3.20;;;1.90;;
62863;SDS011;48954;59.950;11.014;2022-11-20T19:48:50;2.20;;;1.10;;
62863;SDS011;48954;59.950;11.014;2022-11-20T19:51:32;2.40;;;0.90;;
62863;SDS011;48954;59.950;11.014;2022-11-20T19:54:01;2.70;;;1.10;;
62863;SDS011;48954;59.950;11.014;2022-11-20T19:56:31;2.90;;;0.90;;
62863;SDS011;48954;59.950;11.014;2022-11-20T19:59:03;1.50;;;0.70;;
62863;SDS011;48954;59.950;11.014;2022-11-20T20:01:33;2.00;;;0.60;;
62863;SDS011;48954;59.950;11.014;2022-11-20T20:04:00;2.50;;;1.10;;
62863;SDS011;48954;59.950;11.014;2022-11-20T20:15:12;0.80;;;0.30;;
62863;SDS011;48954;59.950;11.014;2022-11-20T20:18:12;1.60;;;0.50;;
62863;SDS011;48954;59.950;11.014;2022-11-20T20:21:14;0.60;;;0.30;;
62863;SDS011;48954;59.950;11.014;2022-11-20T20:59:08;1.70;;;0.50;;
62863;SDS011;48954;59.950;11.014;2022-11-20T21:01:50;3.90;;;1.50;;
62863;SDS011;48954;59.950;11.014;2022-11-20T21:04:53;4.30;;;1.40;;
62863;SDS011;48954;59.950;11.014;2022-11-20T21:08:13;6.90;;;3.00;;
62863;SDS011;48954;59.950;11.014;2022-11-20T21:11:38;7.10;;;3.30;;
62863;SDS011;48954;59.950;11.014;2022-11-20T21:15:07;4.10;;;1.40;;
62863;SDS011;48954;59.950;11.014;2022-11-20T21:17:50;4.90;;;1.40;;
62863;SDS011;48954;59.950;11.014;2022-11-20T21:20:41;2.10;;;1.00;;
62863;SDS011;48954;59.950;11.014;2022-11-20T21:23:25;2.50;;;1.20;;
62863;SDS011;48954;59.950;11.014;2022-11-20T21:26:46;2.80;;;0.90;;
62863;SDS011;48954;59.950;11.014;2022-11-20T21:29:50;3.10;;;0.60;;
62863;SDS011;48954;59.950;11.014;2022-11-20T21:33:05;3.80;;;1.20;;
62863;SDS011;48954;59.950;11.014;2022-11-20T21:35:57;4.50;;;1.40;;
62863;SDS011;48954;59.950;11.014;2022-11-20T21:38:38;3.70;;;1.00;;
62863;SDS011;48954;59.950;11.014;2022-11-20T21:41:23;3.40;;;1.10;;
62863;SDS011;48954;59.950;11.014;2022-11-20T21:44:06;1.50;;;0.80;;
62863;SDS011;48954;59.950;11.014;2022-11-20T21:47:01;2.30;;;0.60;;
62863;SDS011;48954;59.950;11.014;2022-11-20T21:49:41;3.20;;;0.80;;
62863;SDS011;48954;59.950;11.014;2022-11-20T21:52:39;1.70;;;0.40;;
62863;SDS011;48954;59.950;11.014;2022-11-20T21:58:18;3.80;;;1.40;;
62863;SDS011;48954;59.950;11.014;2022-11-20T22:00:59;4.50;;;1.10;;
62863;SDS011;48954;59.950;11.014;2022-11-20T22:03:50;5.10;;;1.30;;
62863;SDS011;48954;59.950;11.014;2022-11-20T22:06:57;2.10;;;0.50;;
62863;SDS011;48954;59.950;11.014;2022-11-20T22:12:40;3.10;;;0.50;;
62863;SDS011;48954;59.950;11.014;2022-11-20T22:15:49;2.20;;;0.80;;
62863;SDS011;48954;59.950;11.014;2022-11-20T22:18:33;2.10;;;0.60;;
62863;SDS011;48954;59.950;11.014;2022-11-20T22:52:13;1.70;;;0.60;;
62863;SDS011;48954;59.950;11.014;2022-11-20T22:54:59;1.00;;;0.40;;
62863;SDS011;48954;59.950;11.014;2022-11-20T22:57:47;1.00;;;0.40;;
62863;SDS011;48954;59.950;11.014;2022-11-20T23:04:08;0.90;;;0.30;;
62863;SDS011;48954;59.950;11.014;2022-11-20T23:06:38;1.90;;;0.50;;
62863;SDS011;48954;59.950;11.014;2022-11-20T23:09:05;1.70;;;0.60;;
62863;SDS011;48954;59.950;11.014;2022-11-20T23:11:34;1.90;;;0.60;;
62863;SDS011;48954;59.950;11.014;2022-11-20T23:14:02;2.50;;;0.60;;
62863;SDS011;48954;59.950;11.014;2022-11-20T23:16:31;2.70;;;0.80;;
62863;SDS011;48954;59.950;11.014;2022-11-20T23:19:03;1.20;;;0.50;;
62863;SDS011;48954;59.950;11.014;2022-11-20T23:21:33;1.10;;;0.40;;
62863;SDS011;48954;59.950;11.014;2022-11-20T23:24:01;1.00;;;0.30;;
62863;SDS011;48954;59.950;11.014;2022-11-20T23:26:32;1.70;;;0.70;;
62863;SDS011;48954;59.950;11.014;2022-11-20T23:29:11;2.00;;;0.70;;
62863;SDS011;48954;59.950;11.014;2022-11-20T23:31:38;0.90;;;0.40;;
62863;SDS011;48954;59.950;11.014;2022-11-20T23:34:07;0.40;;;0.20;;
62863;SDS011;48954;59.950;11.014;2022-11-20T23:36:34;2.90;;;0.60;;
62863;SDS011;48954;59.950;11.014;2022-11-20T23:39:01;2.60;;;0.40;;
62863;SDS011;48954;59.950;11.014;2022-11-20T23:41:43;1.80;;;0.60;;
62863;SDS011;48954;59.950;11.014;2022-11-20T23:44:10;1.10;;;0.50;;
62863;SDS011;48954;59.950;11.014;2022-11-20T23:46:36;2.10;;;0.60;;
62863;SDS011;48954;59.950;11.014;2022-11-20T23:49:03;2.10;;;0.30;;
62863;SDS011;48954;59.950;11.014;2022-11-20T23:51:29;0.30;;;0.20;;
62863;SDS011;48954;59.950;11.014;2022-11-20T23:53:58;1.20;;;0.40;;
62863;SDS011;48954;59.950;11.014;2022-11-20T23:56:25;1.40;;;0.30;;
62863;SDS011;48954;59.950;11.014;2022-11-20T23:58:51;1.40;;;0.30;;
